sensor_id;sensor_type;location;lat;lon;timestamp;pressure;altitude;pressure_sealevel;temperature;humidity
39729;BME280;25402;42.004;23.088;2022-11-11T00:52:25;98662.94;;;3.03;50.16
39729;BME280;25402;42.004;23.088;2022-11-11T01:02:32;98658.22;;;3.07;50.30
39729;BME280;25402;42.004;23.088;2022-11-11T01:04:59;98653.84;;;3.06;50.52
39729;BME280;25402;42.004;23.088;2022-11-11T01:07:28;98659.63;;;3.13;50.37
39729;BME280;25402;42.004;23.088;2022-11-11T01:09:55;98656.09;;;3.12;50.69
39729;BME280;25402;42.004;23.088;2022-11-11T01:12:22;98635.72;;;2.98;50.85
39729;BME280;25402;42.004;23.088;2022-11-11T01:14:49;98639.31;;;3.10;51.12
39729;BME280;25402;42.004;23.088;2022-11-11T01:17:18;98658.28;;;3.18;51.46
39729;BME280;25402;42.004;23.088;2022-11-11T01:19:45;98610.78;;;2.98;51.42
39729;BME280;25402;42.004;23.088;2022-11-11T01:22:12;98652.81;;;3.32;51.10
39729;BME280;25402;42.004;23.088;2022-11-11T01:24:40;98658.69;;;3.37;51.14
39729;BME280;25402;42.004;23.088;2022-11-11T01:27:07;98664.66;;;3.41;51.36
39729;BME280;25402;42.004;23.088;2022-11-11T01:29:34;98661.13;;;3.40;51.40
39729;BME280;25402;42.004;23.088;2022-11-11T01:32:01;98662.53;;;3.46;51.26
39729;BME280;25402;42.004;23.088;2022-11-11T01:34:28;98669.09;;;3.53;51.27
39729;BME280;25402;42.004;23.088;2022-11-11T01:36:55;98650.47;;;3.52;50.70
39729;BME280;25402;42.004;23.088;2022-11-11T01:39:22;98655.63;;;3.55;50.91
39729;BME280;25402;42.004;23.088;2022-11-11T01:41:51;98661.59;;;3.58;50.96
39729;BME280;25402;42.004;23.088;2022-11-11T01:47:03;98642.22;;;3.55;51.00
39729;BME280;25402;42.004;23.088;2022-11-11T01:49:33;98648.31;;;3.57;51.17
39729;BME280;25402;42.004;23.088;2022-11-11T01:52:05;98655.03;;;3.62;51.03
39729;BME280;25402;42.004;23.088;2022-11-11T01:54:36;98651.53;;;3.62;51.16
39729;BME280;25402;42.004;23.088;2022-11-11T01:57:07;98656.72;;;3.63;51.40
39729;BME280;25402;42.004;23.088;2022-11-11T01:59:39;98657.69;;;3.62;51.89
39729;BME280;25402;42.004;23.088;2022-11-11T02:02:16;98625.50;;;3.40;52.04
39729;BME280;25402;42.004;23.088;2022-11-11T02:04:44;98665.38;;;3.67;51.63
39729;BME280;25402;42.004;23.088;2022-11-11T02:07:29;98667.41;;;3.76;51.62
39729;BME280;25402;42.004;23.088;2022-11-11T02:09:57;98668.34;;;3.75;51.58
39729;BME280;25402;42.004;23.088;2022-11-11T02:12:27;98662.63;;;3.79;51.63
39729;BME280;25402;42.004;23.088;2022-11-11T02:15:11;98660.81;;;3.80;51.26
39729;BME280;25402;42.004;23.088;2022-11-11T02:17:39;98670.00;;;3.89;51.04
39729;BME280;25402;42.004;23.088;2022-11-11T02:20:08;98662.06;;;3.87;50.94
39729;BME280;25402;42.004;23.088;2022-11-11T02:22:42;98654.00;;;3.76;50.87
39729;BME280;25402;42.004;23.088;2022-11-11T02:25:13;98665.94;;;3.83;50.75
39729;BME280;25402;42.004;23.088;2022-11-11T02:27:46;98675.91;;;3.81;50.42
39729;BME280;25402;42.004;23.088;2022-11-11T02:30:16;98670.56;;;3.81;50.37
39729;BME280;25402;42.004;23.088;2022-11-11T02:32:44;98677.63;;;3.82;50.50
39729;BME280;25402;42.004;23.088;2022-11-11T02:35:14;98680.53;;;3.79;50.33
39729;BME280;25402;42.004;23.088;2022-11-11T02:37:42;98678.13;;;3.87;50.09
39729;BME280;25402;42.004;23.088;2022-11-11T02:40:15;98680.81;;;3.87;50.15
39729;BME280;25402;42.004;23.088;2022-11-11T02:42:43;98678.50;;;3.94;49.88
39729;BME280;25402;42.004;23.088;2022-11-11T02:45:09;98681.66;;;3.88;49.97
39729;BME280;25402;42.004;23.088;2022-11-11T02:47:36;98681.78;;;3.86;50.10
39729;BME280;25402;42.004;23.088;2022-11-11T02:50:04;98685.72;;;3.93;50.18
39729;BME280;25402;42.004;23.088;2022-11-11T02:52:32;98682.56;;;3.99;49.94
39729;BME280;25402;42.004;23.088;2022-11-11T02:55:00;98664.00;;;3.85;50.24
39729;BME280;25402;42.004;23.088;2022-11-11T02:57:29;98680.47;;;3.92;50.25
39729;BME280;25402;42.004;23.088;2022-11-11T02:59:58;98667.19;;;3.90;50.10
39729;BME280;25402;42.004;23.088;2022-11-11T03:02:25;98682.31;;;4.02;50.18
39729;BME280;25402;42.004;23.088;2022-11-11T03:04:53;98668.19;;;4.00;50.17
39729;BME280;25402;42.004;23.088;2022-11-11T03:07:20;98687.56;;;4.04;50.23
39729;BME280;25402;42.004;23.088;2022-11-11T03:09:47;98676.50;;;4.08;49.79
39729;BME280;25402;42.004;23.088;2022-11-11T03:12:14;98683.44;;;4.11;49.88
39729;BME280;25402;42.004;23.088;2022-11-11T03:14:43;98684.41;;;4.10;50.05
39729;BME280;25402;42.004;23.088;2022-11-11T03:17:11;98695.84;;;4.12;50.20
39729;BME280;25402;42.004;23.088;2022-11-11T03:19:55;98677.47;;;4.07;50.32
39729;BME280;25402;42.004;23.088;2022-11-11T03:22:43;98686.97;;;4.11;50.31
39729;BME280;25402;42.004;23.088;2022-11-11T03:25:09;98681.59;;;4.11;50.38
39729;BME280;25402;42.004;23.088;2022-11-11T03:27:53;98682.47;;;4.12;50.49
39729;BME280;25402;42.004;23.088;2022-11-11T03:30:21;98674.91;;;4.06;50.73
39729;BME280;25402;42.004;23.088;2022-11-11T03:32:48;98672.34;;;4.04;50.88
39729;BME280;25402;42.004;23.088;2022-11-11T03:35:15;98662.69;;;3.91;50.89
39729;BME280;25402;42.004;23.088;2022-11-11T03:37:42;98688.66;;;4.12;51.07
39729;BME280;25402;42.004;23.088;2022-11-11T03:40:26;98686.22;;;4.09;51.09
39729;BME280;25402;42.004;23.088;2022-11-11T03:42:53;98683.09;;;4.15;51.05
39729;BME280;25402;42.004;23.088;2022-11-11T03:45:21;98692.59;;;4.20;51.13
39729;BME280;25402;42.004;23.088;2022-11-11T03:47:48;98697.72;;;4.23;51.12
39729;BME280;25402;42.004;23.088;2022-11-11T03:50:16;98692.63;;;4.31;51.12
39729;BME280;25402;42.004;23.088;2022-11-11T03:52:43;98693.88;;;4.38;51.08
39729;BME280;25402;42.004;23.088;2022-11-11T03:55:10;98667.78;;;4.29;51.38
39729;BME280;25402;42.004;23.088;2022-11-11T03:57:41;98693.13;;;4.47;51.26
39729;BME280;25402;42.004;23.088;2022-11-11T04:00:10;98692.91;;;4.50;50.94
39729;BME280;25402;42.004;23.088;2022-11-11T04:02:39;98684.25;;;4.46;50.84
39729;BME280;25402;42.004;23.088;2022-11-11T04:05:24;98691.81;;;4.53;50.90
39729;BME280;25402;42.004;23.088;2022-11-11T04:08:11;98697.16;;;4.53;50.99
39729;BME280;25402;42.004;23.088;2022-11-11T04:10:55;98703.84;;;4.47;50.83
39729;BME280;25402;42.004;23.088;2022-11-11T04:13:23;98695.22;;;4.55;50.48
39729;BME280;25402;42.004;23.088;2022-11-11T04:16:07;98710.06;;;4.47;50.80
39729;BME280;25402;42.004;23.088;2022-11-11T04:18:36;98709.84;;;4.50;50.64
39729;BME280;25402;42.004;23.088;2022-11-11T04:21:22;98704.31;;;4.41;50.96
39729;BME280;25402;42.004;23.088;2022-11-11T04:24:07;98704.59;;;4.49;50.89
39729;BME280;25402;42.004;23.088;2022-11-11T04:26:53;98707.16;;;4.50;50.80
39729;BME280;25402;42.004;23.088;2022-11-11T04:29:21;98688.97;;;4.43;50.89
39729;BME280;25402;42.004;23.088;2022-11-11T04:31:53;98697.41;;;4.49;58.93
39729;BME280;25402;42.004;23.088;2022-11-11T04:34:39;98707.19;;;5.72;60.46
39729;BME280;25402;42.004;23.088;2022-11-11T04:37:06;98703.25;;;6.61;56.16
39729;BME280;25402;42.004;23.088;2022-11-11T04:39:33;98698.91;;;7.30;54.94
39729;BME280;25402;42.004;23.088;2022-11-11T04:42:17;98704.94;;;7.91;54.29
39729;BME280;25402;42.004;23.088;2022-11-11T04:44:45;98710.94;;;8.43;52.95
39729;BME280;25402;42.004;23.088;2022-11-11T04:47:29;98700.16;;;8.90;50.87
39729;BME280;25402;42.004;23.088;2022-11-11T04:49:57;98703.75;;;9.27;49.13
39729;BME280;25402;42.004;23.088;2022-11-11T04:52:24;98704.72;;;9.54;47.94
39729;BME280;25402;42.004;23.088;2022-11-11T04:54:52;98706.75;;;9.69;47.34
39729;BME280;25402;42.004;23.088;2022-11-11T04:57:38;98709.69;;;9.76;46.02
39729;BME280;25402;42.004;23.088;2022-11-11T05:00:07;98709.06;;;9.82;45.61
39729;BME280;25402;42.004;23.088;2022-11-11T05:02:34;98706.69;;;9.79;44.92
39729;BME280;25402;42.004;23.088;2022-11-11T05:05:20;98713.41;;;9.75;44.59
39729;BME280;25402;42.004;23.088;2022-11-11T05:07:47;98718.13;;;9.91;44.33
39729;BME280;25402;42.004;23.088;2022-11-11T05:10:31;98724.69;;;9.88;43.67
39729;BME280;25402;42.004;23.088;2022-11-11T05:12:58;98723.22;;;9.94;43.57
39729;BME280;25402;42.004;23.088;2022-11-11T05:15:40;98723.38;;;9.92;43.31
39729;BME280;25402;42.004;23.088;2022-11-11T05:18:25;98723.69;;;9.89;43.06
39729;BME280;25402;42.004;23.088;2022-11-11T05:21:13;98719.81;;;9.92;42.72
39729;BME280;25402;42.004;23.088;2022-11-11T05:23:46;98731.88;;;9.97;42.63
39729;BME280;25402;42.004;23.088;2022-11-11T05:26:30;98731.81;;;10.07;42.34
39729;BME280;25402;42.004;23.088;2022-11-11T05:28:58;98732.53;;;10.09;42.10
39729;BME280;25402;42.004;23.088;2022-11-11T05:31:26;98742.63;;;10.07;41.82
39729;BME280;25402;42.004;23.088;2022-11-11T05:33:53;98746.78;;;10.01;41.51
39729;BME280;25402;42.004;23.088;2022-11-11T05:36:21;98748.34;;;10.04;41.83
39729;BME280;25402;42.004;23.088;2022-11-11T05:38:48;98747.13;;;10.16;41.30
39729;BME280;25402;42.004;23.088;2022-11-11T05:41:15;98744.44;;;10.16;41.42
39729;BME280;25402;42.004;23.088;2022-11-11T05:43:42;98750.75;;;10.07;39.81
39729;BME280;25402;42.004;23.088;2022-11-11T05:46:09;98755.59;;;9.58;39.88
39729;BME280;25402;42.004;23.088;2022-11-11T05:48:37;98741.28;;;9.11;40.64
39729;BME280;25402;42.004;23.088;2022-11-11T05:51:26;98717.44;;;8.60;41.35
39729;BME280;25402;42.004;23.088;2022-11-11T05:53:55;98725.28;;;8.24;42.18
39729;BME280;25402;42.004;23.088;2022-11-11T05:56:23;98752.63;;;8.10;42.63
39729;BME280;25402;42.004;23.088;2022-11-11T05:58:51;98758.25;;;7.88;43.21
39729;BME280;25402;42.004;23.088;2022-11-11T06:01:18;98750.00;;;7.60;43.74
39729;BME280;25402;42.004;23.088;2022-11-11T06:03:45;98753.22;;;7.45;44.30
39729;BME280;25402;42.004;23.088;2022-11-11T06:06:12;98761.00;;;7.38;44.32
39729;BME280;25402;42.004;23.088;2022-11-11T06:08:42;98760.22;;;7.26;44.75
39729;BME280;25402;42.004;23.088;2022-11-11T06:11:09;98738.00;;;7.04;45.22
39729;BME280;25402;42.004;23.088;2022-11-11T06:13:36;98756.97;;;7.02;45.33
39729;BME280;25402;42.004;23.088;2022-11-11T06:16:04;98760.63;;;6.91;45.55
39729;BME280;25402;42.004;23.088;2022-11-11T06:18:31;98748.94;;;6.81;45.84
39729;BME280;25402;42.004;23.088;2022-11-11T06:20:58;98753.06;;;6.85;45.90
39729;BME280;25402;42.004;23.088;2022-11-11T06:23:27;98754.03;;;6.84;46.16
39729;BME280;25402;42.004;23.088;2022-11-11T06:25:56;98750.47;;;6.74;46.47
39729;BME280;25402;42.004;23.088;2022-11-11T06:28:39;98749.16;;;6.69;46.69
39729;BME280;25402;42.004;23.088;2022-11-11T06:31:07;98753.41;;;6.71;46.66
39729;BME280;25402;42.004;23.088;2022-11-11T06:33:35;98753.66;;;6.68;46.61
39729;BME280;25402;42.004;23.088;2022-11-11T06:36:03;98755.63;;;6.66;47.04
39729;BME280;25402;42.004;23.088;2022-11-11T06:38:30;98752.63;;;6.59;46.60
39729;BME280;25402;42.004;23.088;2022-11-11T06:40:59;98778.13;;;6.65;46.97
39729;BME280;25402;42.004;23.088;2022-11-11T06:43:28;98768.69;;;6.50;47.35
39729;BME280;25402;42.004;23.088;2022-11-11T06:45:55;98775.03;;;6.49;47.24
39729;BME280;25402;42.004;23.088;2022-11-11T06:48:24;98766.94;;;6.60;47.28
39729;BME280;25402;42.004;23.088;2022-11-11T06:50:51;98761.09;;;6.55;47.43
39729;BME280;25402;42.004;23.088;2022-11-11T06:53:19;98777.09;;;6.56;47.49
39729;BME280;25402;42.004;23.088;2022-11-11T06:55:47;98754.91;;;6.64;47.28
39729;BME280;25402;42.004;23.088;2022-11-11T06:58:17;98753.41;;;6.71;47.16
39729;BME280;25402;42.004;23.088;2022-11-11T07:00:45;98760.25;;;6.75;47.17
39729;BME280;25402;42.004;23.088;2022-11-11T07:03:14;98746.31;;;6.70;46.92
39729;BME280;25402;42.004;23.088;2022-11-11T07:05:41;98766.78;;;6.82;46.92
39729;BME280;25402;42.004;23.088;2022-11-11T07:08:09;98717.69;;;6.59;46.48
39729;BME280;25402;42.004;23.088;2022-11-11T07:10:38;98753.19;;;6.84;46.88
39729;BME280;25402;42.004;23.088;2022-11-11T07:13:06;98763.44;;;6.90;46.64
39729;BME280;25402;42.004;23.088;2022-11-11T07:15:35;98772.53;;;6.99;46.67
39729;BME280;25402;42.004;23.088;2022-11-11T07:18:02;98769.50;;;7.13;46.46
39729;BME280;25402;42.004;23.088;2022-11-11T07:20:29;98777.34;;;7.25;46.43
39729;BME280;25402;42.004;23.088;2022-11-11T07:22:56;98773.28;;;7.31;46.31
39729;BME280;25402;42.004;23.088;2022-11-11T07:25:23;98774.00;;;7.33;46.13
39729;BME280;25402;42.004;23.088;2022-11-11T07:27:50;98780.13;;;7.45;46.15
39729;BME280;25402;42.004;23.088;2022-11-11T07:30:17;98775.72;;;7.44;46.00
39729;BME280;25402;42.004;23.088;2022-11-11T07:32:47;98777.31;;;7.46;46.07
39729;BME280;25402;42.004;23.088;2022-11-11T07:35:15;98784.41;;;7.57;45.70
39729;BME280;25402;42.004;23.088;2022-11-11T07:37:43;98774.75;;;7.45;45.70
39729;BME280;25402;42.004;23.088;2022-11-11T07:40:12;98783.28;;;7.50;45.87
39729;BME280;25402;42.004;23.088;2022-11-11T07:42:40;98780.88;;;7.56;45.83
39729;BME280;25402;42.004;23.088;2022-11-11T07:45:09;98768.97;;;7.49;45.81
39729;BME280;25402;42.004;23.088;2022-11-11T07:47:37;98769.69;;;7.61;45.82
39729;BME280;25402;42.004;23.088;2022-11-11T07:50:07;98771.41;;;7.72;45.66
39729;BME280;25402;42.004;23.088;2022-11-11T07:52:34;98763.91;;;7.66;46.00
39729;BME280;25402;42.004;23.088;2022-11-11T07:55:02;98770.75;;;7.79;45.60
39729;BME280;25402;42.004;23.088;2022-11-11T07:57:30;98770.06;;;7.87;45.48
39729;BME280;25402;42.004;23.088;2022-11-11T07:59:57;98768.78;;;7.91;45.34
39729;BME280;25402;42.004;23.088;2022-11-11T08:02:24;98762.97;;;8.05;45.28
39729;BME280;25402;42.004;23.088;2022-11-11T08:04:51;98769.28;;;8.15;45.35
39729;BME280;25402;42.004;23.088;2022-11-11T08:07:20;98774.50;;;8.26;45.42
39729;BME280;25402;42.004;23.088;2022-11-11T08:09:48;98771.53;;;8.29;45.16
39729;BME280;25402;42.004;23.088;2022-11-11T08:12:15;98768.97;;;8.28;44.65
39729;BME280;25402;42.004;23.088;2022-11-11T08:15:00;98768.28;;;8.26;44.53
39729;BME280;25402;42.004;23.088;2022-11-11T08:17:27;98753.09;;;8.25;44.05
39729;BME280;25402;42.004;23.088;2022-11-11T08:19:53;98780.03;;;8.34;44.20
39729;BME280;25402;42.004;23.088;2022-11-11T08:22:22;98775.78;;;8.42;44.08
39729;BME280;25402;42.004;23.088;2022-11-11T08:24:49;98782.44;;;8.38;43.88
39729;BME280;25402;42.004;23.088;2022-11-11T08:27:16;98779.47;;;8.41;43.96
39729;BME280;25402;42.004;23.088;2022-11-11T08:29:44;98771.25;;;8.42;43.86
39729;BME280;25402;42.004;23.088;2022-11-11T08:32:12;98780.59;;;8.38;43.79
39729;BME280;25402;42.004;23.088;2022-11-11T08:34:39;98784.16;;;8.39;43.90
39729;BME280;25402;42.004;23.088;2022-11-11T08:37:06;98792.53;;;8.36;43.88
39729;BME280;25402;42.004;23.088;2022-11-11T08:39:34;98778.06;;;8.27;44.11
39729;BME280;25402;42.004;23.088;2022-11-11T08:42:02;98791.69;;;8.25;44.29
39729;BME280;25402;42.004;23.088;2022-11-11T08:44:29;98784.84;;;8.21;44.19
39729;BME280;25402;42.004;23.088;2022-11-11T08:46:56;98779.91;;;8.17;44.33
39729;BME280;25402;42.004;23.088;2022-11-11T08:49:23;98791.25;;;8.20;44.17
39729;BME280;25402;42.004;23.088;2022-11-11T08:51:50;98779.44;;;8.02;44.44
39729;BME280;25402;42.004;23.088;2022-11-11T08:54:17;98808.72;;;8.16;44.46
39729;BME280;25402;42.004;23.088;2022-11-11T08:56:45;98791.81;;;8.14;44.53
39729;BME280;25402;42.004;23.088;2022-11-11T08:59:13;98781.75;;;8.16;44.86
39729;BME280;25402;42.004;23.088;2022-11-11T09:01:40;98793.25;;;8.38;44.56
39729;BME280;25402;42.004;23.088;2022-11-11T09:04:07;98767.00;;;8.40;44.40
39729;BME280;25402;42.004;23.088;2022-11-11T09:06:34;98793.09;;;8.58;44.09
39729;BME280;25402;42.004;23.088;2022-11-11T09:09:01;98768.97;;;8.57;43.95
39729;BME280;25402;42.004;23.088;2022-11-11T09:11:28;98770.09;;;8.64;43.73
39729;BME280;25402;42.004;23.088;2022-11-11T09:14:02;98772.75;;;8.83;43.58
39729;BME280;25402;42.004;23.088;2022-11-11T09:16:29;98768.19;;;8.84;43.50
39729;BME280;25402;42.004;23.088;2022-11-11T09:18:56;98772.75;;;8.93;43.28
39729;BME280;25402;42.004;23.088;2022-11-11T09:21:23;98761.28;;;8.81;43.54
39729;BME280;25402;42.004;23.088;2022-11-11T09:23:49;98773.97;;;8.98;43.36
39729;BME280;25402;42.004;23.088;2022-11-11T09:26:17;98761.63;;;9.06;43.33
39729;BME280;25402;42.004;23.088;2022-11-11T09:28:44;98765.16;;;9.16;43.40
39729;BME280;25402;42.004;23.088;2022-11-11T09:31:13;98751.78;;;9.24;43.15
39729;BME280;25402;42.004;23.088;2022-11-11T09:33:40;98747.19;;;9.34;42.89
39729;BME280;25402;42.004;23.088;2022-11-11T09:36:07;98747.59;;;9.66;42.35
39729;BME280;25402;42.004;23.088;2022-11-11T09:38:34;98739.59;;;9.75;42.34
39729;BME280;25402;42.004;23.088;2022-11-11T09:41:12;98741.44;;;9.92;41.76
39729;BME280;25402;42.004;23.088;2022-11-11T09:43:47;98746.25;;;9.98;42.29
39729;BME280;25402;42.004;23.088;2022-11-11T09:46:38;98728.22;;;10.16;41.76
39729;BME280;25402;42.004;23.088;2022-11-11T09:52:13;98732.19;;;10.48;41.46
39729;BME280;25402;42.004;23.088;2022-11-11T09:54:44;98730.38;;;10.74;41.24
39729;BME280;25402;42.004;23.088;2022-11-11T09:57:25;98714.84;;;11.02;40.73
39729;BME280;25402;42.004;23.088;2022-11-11T09:59:59;98689.34;;;11.13;40.32
39729;BME280;25402;42.004;23.088;2022-11-11T10:02:34;98711.19;;;11.53;39.79
39729;BME280;25402;42.004;23.088;2022-11-11T10:05:08;98713.63;;;11.64;39.67
39729;BME280;25402;42.004;23.088;2022-11-11T10:07:40;98715.56;;;11.88;39.58
39729;BME280;25402;42.004;23.088;2022-11-11T10:10:27;98708.13;;;12.14;39.11
39729;BME280;25402;42.004;23.088;2022-11-11T10:12:57;98715.59;;;12.12;39.05
39729;BME280;25402;42.004;23.088;2022-11-11T10:15:26;98699.84;;;12.16;38.74
39729;BME280;25402;42.004;23.088;2022-11-11T10:18:20;98694.91;;;12.20;38.81
39729;BME280;25402;42.004;23.088;2022-11-11T10:20:53;98700.53;;;12.26;38.92
39729;BME280;25402;42.004;23.088;2022-11-11T10:23:25;98687.81;;;12.35;38.71
39729;BME280;25402;42.004;23.088;2022-11-11T10:25:56;98678.47;;;12.29;38.60
39729;BME280;25402;42.004;23.088;2022-11-11T10:28:29;98682.72;;;12.40;38.70
39729;BME280;25402;42.004;23.088;2022-11-11T10:31:00;98676.94;;;12.51;38.87
39729;BME280;25402;42.004;23.088;2022-11-11T10:33:34;98678.13;;;12.73;38.56
39729;BME280;25402;42.004;23.088;2022-11-11T10:36:08;98681.84;;;12.80;38.15
39729;BME280;25402;42.004;23.088;2022-11-11T10:38:45;98678.91;;;12.98;37.71
39729;BME280;25402;42.004;23.088;2022-11-11T10:41:18;98665.22;;;12.83;38.19
39729;BME280;25402;42.004;23.088;2022-11-11T10:43:48;98663.16;;;12.85;37.95
39729;BME280;25402;42.004;23.088;2022-11-11T10:46:18;98661.84;;;12.73;38.03
39729;BME280;25402;42.004;23.088;2022-11-11T10:48:54;98659.09;;;12.65;38.08
39729;BME280;25402;42.004;23.088;2022-11-11T10:51:27;98661.69;;;12.58;38.42
39729;BME280;25402;42.004;23.088;2022-11-11T10:54:02;98640.47;;;12.13;38.34
39729;BME280;25402;42.004;23.088;2022-11-11T10:56:32;98659.66;;;12.11;38.44
39729;BME280;25402;42.004;23.088;2022-11-11T10:59:08;98651.69;;;11.94;38.77
39729;BME280;25402;42.004;23.088;2022-11-11T11:01:40;98656.84;;;11.63;38.99
39729;BME280;25402;42.004;23.088;2022-11-11T11:04:16;98646.13;;;11.53;39.21
39729;BME280;25402;42.004;23.088;2022-11-11T11:06:48;98641.41;;;11.47;39.17
39729;BME280;25402;42.004;23.088;2022-11-11T11:09:20;98642.25;;;11.56;38.88
39729;BME280;25402;42.004;23.088;2022-11-11T11:11:51;98637.72;;;11.64;39.01
39729;BME280;25402;42.004;23.088;2022-11-11T11:14:26;98644.47;;;11.68;38.92
39729;BME280;25402;42.004;23.088;2022-11-11T11:16:59;98629.56;;;11.80;38.51
39729;BME280;25402;42.004;23.088;2022-11-11T11:19:28;98628.06;;;11.78;38.58
39729;BME280;25402;42.004;23.088;2022-11-11T11:21:56;98640.81;;;12.02;38.35
39729;BME280;25402;42.004;23.088;2022-11-11T11:24:25;98626.19;;;11.62;38.95
39729;BME280;25402;42.004;23.088;2022-11-11T11:26:54;98631.06;;;11.42;39.28
39729;BME280;25402;42.004;23.088;2022-11-11T11:29:30;98603.94;;;11.51;38.82
39729;BME280;25402;42.004;23.088;2022-11-11T11:32:11;98612.97;;;11.67;38.46
39729;BME280;25402;42.004;23.088;2022-11-11T11:34:51;98617.00;;;11.55;38.68
39729;BME280;25402;42.004;23.088;2022-11-11T11:37:20;98625.53;;;11.85;38.44
39729;BME280;25402;42.004;23.088;2022-11-11T11:39:48;98600.97;;;11.78;38.21
39729;BME280;25402;42.004;23.088;2022-11-11T11:42:32;98602.19;;;11.92;37.79
39729;BME280;25402;42.004;23.088;2022-11-11T11:45:16;98601.09;;;11.68;38.18
39729;BME280;25402;42.004;23.088;2022-11-11T11:47:55;98596.75;;;11.92;37.74
39729;BME280;25402;42.004;23.088;2022-11-11T11:50:38;98596.41;;;11.87;37.78
39729;BME280;25402;42.004;23.088;2022-11-11T11:53:19;98601.50;;;11.90;37.81
39729;BME280;25402;42.004;23.088;2022-11-11T11:55:54;98597.03;;;11.80;37.92
39729;BME280;25402;42.004;23.088;2022-11-11T11:58:32;98594.28;;;11.32;38.13
39729;BME280;25402;42.004;23.088;2022-11-11T12:01:04;98595.66;;;11.44;38.39
39729;BME280;25402;42.004;23.088;2022-11-11T12:03:59;98588.78;;;12.06;37.18
39729;BME280;25402;42.004;23.088;2022-11-11T12:06:38;98588.44;;;12.17;37.16
39729;BME280;25402;42.004;23.088;2022-11-11T12:09:19;98597.09;;;11.97;37.29
39729;BME280;25402;42.004;23.088;2022-11-11T12:11:59;98586.22;;;12.13;37.00
39729;BME280;25402;42.004;23.088;2022-11-11T12:14:50;98583.88;;;12.26;36.93
39729;BME280;25402;42.004;23.088;2022-11-11T12:17:42;98603.53;;;12.12;36.88
39729;BME280;25402;42.004;23.088;2022-11-11T12:20:15;98601.28;;;11.83;37.19
39729;BME280;25402;42.004;23.088;2022-11-11T12:22:56;98593.69;;;11.78;37.06
39729;BME280;25402;42.004;23.088;2022-11-11T12:25:36;98581.47;;;11.74;37.21
39729;BME280;25402;42.004;23.088;2022-11-11T12:28:12;98585.22;;;11.98;36.61
39729;BME280;25402;42.004;23.088;2022-11-11T12:30:48;98583.50;;;12.29;36.19
39729;BME280;25402;42.004;23.088;2022-11-11T12:33:41;98578.44;;;12.18;36.29
39729;BME280;25402;42.004;23.088;2022-11-11T12:36:20;98565.50;;;12.44;36.04
39729;BME280;25402;42.004;23.088;2022-11-11T12:38:57;98608.28;;;12.18;35.71
39729;BME280;25402;42.004;23.088;2022-11-11T12:41:38;98585.72;;;12.26;35.87
39729;BME280;25402;42.004;23.088;2022-11-11T12:44:11;98586.22;;;12.13;35.70
39729;BME280;25402;42.004;23.088;2022-11-11T12:46:46;98570.44;;;11.84;35.82
39729;BME280;25402;42.004;23.088;2022-11-11T12:49:40;98588.25;;;11.78;36.45
39729;BME280;25402;42.004;23.088;2022-11-11T12:52:18;98566.94;;;11.92;37.23
39729;BME280;25402;42.004;23.088;2022-11-11T12:55:03;98576.25;;;12.05;36.24
39729;BME280;25402;42.004;23.088;2022-11-11T12:57:38;98578.63;;;12.08;35.65
39729;BME280;25402;42.004;23.088;2022-11-11T13:00:15;98575.75;;;12.10;35.71
39729;BME280;25402;42.004;23.088;2022-11-11T13:03:14;98576.06;;;12.23;35.75
39729;BME280;25402;42.004;23.088;2022-11-11T13:05:54;98566.06;;;11.99;35.72
39729;BME280;25402;42.004;23.088;2022-11-11T13:08:39;98564.72;;;12.03;35.45
39729;BME280;25402;42.004;23.088;2022-11-11T13:11:15;98546.22;;;11.82;35.71
39729;BME280;25402;42.004;23.088;2022-11-11T13:14:07;98575.22;;;11.98;35.42
39729;BME280;25402;42.004;23.088;2022-11-11T13:16:38;98562.81;;;12.28;34.85
39729;BME280;25402;42.004;23.088;2022-11-11T13:19:15;98499.28;;;11.74;34.98
39729;BME280;25402;42.004;23.088;2022-11-11T13:21:48;98478.63;;;11.89;34.99
39729;BME280;25402;42.004;23.088;2022-11-11T13:24:19;98533.34;;;11.85;35.04
39729;BME280;25402;42.004;23.088;2022-11-11T13:26:52;98543.88;;;11.88;35.21
39729;BME280;25402;42.004;23.088;2022-11-11T13:29:52;98527.59;;;11.71;35.33
39729;BME280;25402;42.004;23.088;2022-11-11T13:32:27;98550.28;;;11.62;35.74
39729;BME280;25402;42.004;23.088;2022-11-11T13:34:57;98482.66;;;11.12;35.79
39729;BME280;25402;42.004;23.088;2022-11-11T13:37:27;98551.09;;;11.30;36.28
39729;BME280;25402;42.004;23.088;2022-11-11T13:40:02;98556.03;;;11.43;36.00
39729;BME280;25402;42.004;23.088;2022-11-11T13:42:38;98539.94;;;11.58;35.79
39729;BME280;25402;42.004;23.088;2022-11-11T13:45:21;98539.28;;;11.72;35.37
39729;BME280;25402;42.004;23.088;2022-11-11T13:47:50;98526.22;;;11.51;35.43
39729;BME280;25402;42.004;23.088;2022-11-11T13:50:23;98531.31;;;11.70;34.99
39729;BME280;25402;42.004;23.088;2022-11-11T13:52:55;98529.06;;;11.33;35.12
39729;BME280;25402;42.004;23.088;2022-11-11T13:55:30;98532.00;;;11.56;35.02
39729;BME280;25402;42.004;23.088;2022-11-11T13:58:00;98536.22;;;11.75;35.00
39729;BME280;25402;42.004;23.088;2022-11-11T14:00:30;98520.13;;;11.41;35.02
39729;BME280;25402;42.004;23.088;2022-11-11T14:03:35;98526.56;;;11.56;34.97
39729;BME280;25402;42.004;23.088;2022-11-11T14:12:32;98533.34;;;11.76;34.72
39729;BME280;25402;42.004;23.088;2022-11-11T14:15:03;98541.50;;;11.76;34.70
39729;BME280;25402;42.004;23.088;2022-11-11T14:17:33;98528.59;;;11.70;34.63
39729;BME280;25402;42.004;23.088;2022-11-11T14:20:36;98542.84;;;11.64;34.74
39729;BME280;25402;42.004;23.088;2022-11-11T14:23:23;98538.59;;;11.54;34.40
39729;BME280;25402;42.004;23.088;2022-11-11T14:26:23;98537.25;;;11.58;34.76
39729;BME280;25402;42.004;23.088;2022-11-11T14:28:59;98554.66;;;11.31;34.74
39729;BME280;25402;42.004;23.088;2022-11-11T14:37:40;98549.25;;;11.39;34.63
39729;BME280;25402;42.004;23.088;2022-11-11T14:40:22;98549.72;;;11.26;34.69
39729;BME280;25402;42.004;23.088;2022-11-11T14:42:52;98476.16;;;10.89;34.60